Time;durP1;ratioP1;P1;durP2;ratioP2;P2;SDS_P1;SDS_P2;PMS_P1;PMS_P2;Temp;Humidity;BMP_temperature;BMP_pressure;BME280_temperature;BME280_humidity;BME280_pressure;Samples;Min_cycle;Max_cycle;Signal;HPM_P1;HPM_P2
2022/12/15 00:39:35;;;;;;;13.37;9.73;;;-1.40;99.90;;;;;;5051354;28;20465;-48
2022/12/15 00:42:01;;;;;;;10.77;8.63;;;-1.30;99.90;;;;;;5051348;28;20891;-51
2022/12/15 00:44:28;;;;;;;10.07;7.80;;;-1.30;99.90;;;;;;5051562;28;20891;-48
2022/12/15 00:46:55;;;;;;;9.43;7.77;;;-1.10;99.90;;;;;;5051801;28;20446;-48
2022/12/15 01:22:24;;;;;;;6.07;5.50;;;-0.90;99.90;;;;;;5051117;28;20555;-48
2022/12/15 01:24:50;;;;;;;6.20;5.70;;;-1.00;99.90;;;;;;5050563;28;20561;-49
2022/12/15 01:27:17;;;;;;;7.43;6.80;;;-1.10;99.90;;;;;;5050920;28;20447;-48
2022/12/15 01:29:44;;;;;;;7.10;6.43;;;-1.10;99.90;;;;;;5050995;28;20445;-51
2022/12/15 01:32:12;;;;;;;8.47;7.57;;;-1.20;99.90;;;;;;5050985;28;20532;-48
2022/12/15 01:34:40;;;;;;;9.03;8.03;;;-1.10;99.90;;;;;;5050381;28;20488;-49
2022/12/15 01:37:07;;;;;;;7.57;6.77;;;-1.20;99.90;;;;;;5035581;28;20453;-49
2022/12/15 01:42:15;;;;;;;8.37;5.97;;;-1.30;99.90;;;;;;5049690;28;20909;-48
2022/12/15 01:44:42;;;;;;;6.97;6.00;;;-1.20;99.90;;;;;;5050582;28;20473;-50
2022/12/15 01:47:13;;;;;;;10.70;6.17;;;-1.10;99.90;;;;;;5050347;28;20479;-48
2022/12/15 01:49:46;;;;;;;5.60;5.10;;;-1.00;99.90;;;;;;5050799;28;20533;-48
2022/12/15 01:52:15;;;;;;;6.70;6.10;;;-0.90;99.90;;;;;;5050919;28;20448;-50
2022/12/15 01:54:48;;;;;;;8.97;7.87;;;-1.00;99.90;;;;;;5050106;28;20556;-48
2022/12/15 01:57:19;;;;;;;11.10;8.00;;;-0.90;99.90;;;;;;5050607;28;20866;-47
2022/12/15 01:59:51;;;;;;;8.93;8.07;;;-1.00;99.90;;;;;;5050328;28;20442;-51
2022/12/15 02:02:20;;;;;;;8.43;7.73;;;-0.90;99.90;;;;;;5050076;28;20563;-49
2022/12/15 02:04:50;;;;;;;7.73;7.00;;;-0.80;99.90;;;;;;5050404;28;20468;-50
2022/12/15 02:07:17;;;;;;;9.70;7.90;;;-0.80;99.90;;;;;;5050381;28;20536;-51
2022/12/15 02:09:48;;;;;;;10.20;8.23;;;-1.10;99.90;;;;;;5050404;28;20567;-49
2022/12/15 02:12:25;;;;;;;9.67;7.57;;;-1.00;99.90;;;;;;5050585;28;21022;-48
2022/12/15 02:15:05;;;;;;;8.37;6.53;;;-0.90;99.90;;;;;;5050236;28;20560;-48
2022/12/15 02:17:41;;;;;;;7.77;7.00;;;-0.90;99.90;;;;;;5034827;28;20446;-48
2022/12/15 02:20:44;;;;;;;7.93;7.03;;;-0.80;99.90;;;;;;5050289;28;20441;-49
2022/12/15 02:23:57;;;;;;;7.27;6.57;;;-0.80;99.90;;;;;;5050314;28;20556;-49
2022/12/15 02:26:47;;;;;;;6.90;6.23;;;-1.00;99.90;;;;;;5051593;28;20831;-48
2022/12/15 02:29:35;;;;;;;6.57;5.97;;;-0.90;99.90;;;;;;5054289;28;20545;-50
2022/12/15 02:32:09;;;;;;;8.43;6.30;;;-0.80;99.90;;;;;;5054173;28;20604;-48
2022/12/15 02:34:42;;;;;;;6.40;5.67;;;-0.80;99.90;;;;;;5039722;28;20872;-47
2022/12/15 02:37:16;;;;;;;5.40;4.90;;;-0.80;99.90;;;;;;5055412;28;20541;-49
2022/12/15 02:39:43;;;;;;;6.20;5.20;;;-0.70;99.90;;;;;;5054299;28;20528;-50
2022/12/15 02:42:11;;;;;;;8.20;6.50;;;-0.70;99.90;;;;;;5053292;28;20479;-51
2022/12/15 02:44:43;;;;;;;8.97;6.93;;;-1.00;99.90;;;;;;5053671;28;20579;-49
2022/12/15 02:47:32;;;;;;;8.63;7.80;;;-1.10;99.90;;;;;;5053459;28;20449;-48
2022/12/15 02:50:21;;;;;;;4.83;4.20;;;-1.40;99.90;;;;;;5052065;28;20521;-48
2022/12/15 02:53:00;;;;;;;5.87;5.23;;;-1.30;99.90;;;;;;5051856;28;20539;-48
2022/12/15 02:55:35;;;;;;;6.57;5.97;;;-1.10;99.90;;;;;;5050382;28;20840;-49
2022/12/15 02:58:08;;;;;;;5.77;4.60;;;-1.20;99.90;;;;;;5052523;28;20536;-51
2022/12/15 03:00:40;;;;;;;4.60;4.20;;;-1.30;99.90;;;;;;5036592;28;20442;-49
2022/12/15 03:03:09;;;;;;;4.30;3.90;;;-1.30;99.90;;;;;;5052453;28;20556;-49
2022/12/15 03:05:37;;;;;;;5.07;4.00;;;-1.10;99.90;;;;;;5053548;28;20561;-51
2022/12/15 03:08:04;;;;;;;3.23;2.93;;;-1.00;99.90;;;;;;5052897;28;20437;-51
2022/12/15 03:10:31;;;;;;;3.80;3.40;;;-1.00;99.90;;;;;;5052867;28;21021;-51
2022/12/15 03:12:58;;;;;;;5.10;4.60;;;-1.00;99.90;;;;;;5052930;28;20434;-48
2022/12/15 03:15:25;;;;;;;6.97;6.20;;;-1.20;99.90;;;;;;5053365;28;20469;-49
2022/12/15 03:17:52;;;;;;;8.23;7.03;;;-1.40;99.90;;;;;;5053427;28;20532;-48
2022/12/15 03:20:20;;;;;;;7.63;6.80;;;-1.30;99.90;;;;;;5052865;28;20544;-49
2022/12/15 03:22:47;;;;;;;10.43;8.40;;;-1.10;99.90;;;;;;5052911;28;20466;-48
2022/12/15 03:25:14;;;;;;;8.53;7.60;;;-1.00;99.90;;;;;;5052863;28;20545;-49
2022/12/15 03:27:41;;;;;;;8.53;7.23;;;-1.10;99.90;;;;;;5053248;28;20475;-48
2022/12/15 03:30:08;;;;;;;9.60;6.37;;;-1.20;99.90;;;;;;5052525;28;20595;-48
2022/12/15 03:32:35;;;;;;;8.50;7.50;;;-1.10;99.90;;;;;;5052979;28;20438;-48
2022/12/15 03:35:02;;;;;;;8.20;7.40;;;-1.00;99.90;;;;;;5052167;28;20853;-51
2022/12/15 03:37:31;;;;;;;9.93;7.70;;;-0.90;99.90;;;;;;5052202;28;20478;-48
2022/12/15 03:39:57;;;;;;;10.33;7.47;;;-0.90;99.90;;;;;;5052683;28;20451;-49
2022/12/15 03:45:06;;;;;;;10.93;7.93;;;-0.90;99.90;;;;;;5051391;28;20532;-50
2022/12/15 03:47:33;;;;;;;8.87;7.40;;;-0.90;99.90;;;;;;5052634;28;20548;-49
2022/12/15 03:50:00;;;;;;;10.70;7.70;;;-1.00;99.90;;;;;;5052080;28;21037;-49
2022/12/15 03:52:26;;;;;;;7.63;6.83;;;-1.00;99.90;;;;;;5050833;28;20516;-48
2022/12/15 03:54:55;;;;;;;6.87;5.90;;;-0.90;99.90;;;;;;5051785;28;20587;-49
2022/12/15 03:57:22;;;;;;;6.17;5.23;;;-0.80;99.90;;;;;;5052421;28;20529;-52
2022/12/15 03:59:48;;;;;;;5.43;4.93;;;-0.80;99.90;;;;;;5052462;28;20448;-50
2022/12/15 04:02:15;;;;;;;7.20;5.30;;;-0.80;99.90;;;;;;5052100;28;20442;-48
2022/12/15 04:04:42;;;;;;;8.03;7.30;;;-0.90;99.90;;;;;;5052461;28;20554;-49
2022/12/15 04:07:09;;;;;;;8.77;6.87;;;-0.80;99.90;;;;;;5052361;28;20446;-48
2022/12/15 04:09:36;;;;;;;8.60;6.80;;;-0.90;99.90;;;;;;5052227;28;20524;-49
2022/12/15 04:12:04;;;;;;;9.93;7.13;;;-0.90;99.90;;;;;;5052242;28;20529;-49
2022/12/15 04:14:31;;;;;;;7.83;7.03;;;-0.80;99.90;;;;;;5039667;28;20446;-48
2022/12/15 04:16:59;;;;;;;8.80;7.43;;;-0.80;99.90;;;;;;5052537;28;20446;-48
2022/12/15 04:22:10;;;;;;;8.70;7.90;;;-0.70;99.90;;;;;;5051794;28;20441;-49
2022/12/15 05:33:14;;;;;;;3.20;2.50;;;-1.10;99.90;;;;;;5049582;28;20496;-48
2022/12/15 05:35:40;;;;;;;2.90;2.60;;;-1.10;99.90;;;;;;5050905;28;20468;-48
2022/12/15 05:38:07;;;;;;;5.30;3.50;;;-1.10;99.90;;;;;;5050361;28;20445;-48
2022/12/15 05:40:34;;;;;;;5.00;3.90;;;-1.40;99.90;;;;;;5051102;28;20877;-48
2022/12/15 05:43:01;;;;;;;14.40;10.57;;;-1.40;99.90;;;;;;5050152;28;21065;-49
2022/12/15 05:45:28;;;;;;;7.70;5.63;;;-1.30;99.90;;;;;;5050447;28;20572;-48
2022/12/15 05:47:55;;;;;;;4.90;3.90;;;-1.40;99.90;;;;;;5048717;28;20540;-49
2022/12/15 05:50:24;;;;;;;3.47;3.10;;;-1.50;99.90;;;;;;5050937;28;20448;-48
2022/12/15 05:52:51;;;;;;;9.73;8.73;;;-1.40;99.90;;;;;;5050289;28;20445;-47
2022/12/15 05:55:18;;;;;;;11.53;10.47;;;-1.20;99.90;;;;;;5050242;28;20499;-48
2022/12/15 05:57:50;;;;;;;7.57;6.13;;;-1.10;99.90;;;;;;5050118;28;20449;-50
2022/12/15 06:00:17;;;;;;;6.00;4.73;;;-1.20;99.90;;;;;;5049849;28;20572;-48
2022/12/15 06:02:44;;;;;;;5.80;4.77;;;-1.30;99.90;;;;;;5054723;28;20540;-46
2022/12/15 06:05:11;;;;;;;4.37;3.87;;;-1.40;99.90;;;;;;5055767;28;20540;-48
2022/12/15 06:07:39;;;;;;;4.10;3.27;;;-1.40;99.90;;;;;;5054876;28;20444;-49
2022/12/15 06:10:07;;;;;;;4.00;3.60;;;-1.50;99.90;;;;;;5053914;28;20993;-48
2022/12/15 06:12:34;;;;;;;6.40;3.37;;;-1.40;99.90;;;;;;5054678;28;20437;-48
2022/12/15 06:15:00;;;;;;;4.80;4.40;;;-1.50;99.90;;;;;;5054448;28;20553;-49
2022/12/15 06:17:27;;;;;;;3.80;3.00;;;-1.40;99.90;;;;;;5054350;28;20994;-50
2022/12/15 06:19:54;;;;;;;3.97;3.57;;;-1.50;99.90;;;;;;5055000;28;20524;-48
2022/12/15 06:22:21;;;;;;;4.60;4.20;;;-1.60;99.90;;;;;;5054749;28;20892;-49
2022/12/15 06:24:49;;;;;;;4.40;3.80;;;-1.50;99.90;;;;;;5054254;28;20487;-48
2022/12/15 06:27:16;;;;;;;6.03;5.43;;;-1.40;99.90;;;;;;5054743;28;20449;-48
2022/12/15 06:29:44;;;;;;;6.03;5.23;;;-1.60;99.90;;;;;;5054726;28;20538;-50
2022/12/15 06:32:10;;;;;;;4.40;4.00;;;-1.50;99.90;;;;;;5054819;28;20493;-48
2022/12/15 06:34:37;;;;;;;4.93;4.47;;;-1.60;99.90;;;;;;5053898;28;20493;-51
2022/12/15 06:37:04;;;;;;;5.50;5.03;;;-1.70;99.90;;;;;;5054433;28;20452;-48
2022/12/15 06:39:31;;;;;;;8.00;7.20;;;-1.70;99.90;;;;;;5054086;28;20445;-48
2022/12/15 06:41:59;;;;;;;16.57;13.07;;;-1.90;99.90;;;;;;5054621;28;20536;-51
2022/12/15 06:44:26;;;;;;;24.97;13.90;;;-2.20;99.90;;;;;;5053943;28;20474;-51
2022/12/15 06:46:53;;;;;;;12.57;9.77;;;-2.20;99.90;;;;;;5054551;28;20803;-48
2022/12/15 06:49:20;;;;;;;15.87;10.40;;;-2.20;99.90;;;;;;5054182;28;20437;-48
2022/12/15 06:51:49;;;;;;;9.90;6.90;;;-2.20;99.90;;;;;;5054090;28;20459;-48
2022/12/15 06:54:15;;;;;;;10.80;9.10;;;-2.00;99.90;;;;;;5053560;28;21078;-48
2022/12/15 06:56:42;;;;;;;10.93;8.90;;;-1.90;99.90;;;;;;5054157;28;20543;-49
2022/12/15 06:59:12;;;;;;;10.17;9.10;;;-1.90;99.90;;;;;;5054293;28;20453;-50
2022/12/15 07:01:40;;;;;;;11.10;8.80;;;-2.10;99.90;;;;;;5054021;28;20815;-49
2022/12/15 07:04:07;;;;;;;9.40;6.97;;;-2.10;99.90;;;;;;5053735;28;20573;-48
2022/12/15 07:06:36;;;;;;;14.20;7.77;;;-1.90;99.90;;;;;;5054130;28;20544;-49
2022/12/15 07:09:03;;;;;;;16.17;8.20;;;-1.70;99.90;;;;;;5054168;28;20490;-50
2022/12/15 07:11:30;;;;;;;13.27;8.30;;;-2.00;99.90;;;;;;5054107;28;20836;-51
2022/12/15 07:13:56;;;;;;;11.53;8.00;;;-2.00;99.90;;;;;;5052391;28;20536;-48
2022/12/15 07:16:25;;;;;;;8.43;7.53;;;-1.80;99.90;;;;;;5053524;28;20468;-48
2022/12/15 07:18:52;;;;;;;10.77;7.77;;;-1.80;99.90;;;;;;5053624;28;20452;-50
2022/12/15 07:21:19;;;;;;;13.03;10.07;;;-2.00;99.90;;;;;;5053684;28;20449;-48
2022/12/15 07:23:46;;;;;;;16.47;12.30;;;-1.80;99.90;;;;;;5053287;28;21005;-46
2022/12/15 07:26:13;;;;;;;9.27;6.77;;;-1.70;99.90;;;;;;5053647;28;20470;-49
2022/12/15 07:28:40;;;;;;;15.63;7.60;;;-1.60;99.90;;;;;;5053475;28;20468;-49
2022/12/15 07:31:09;;;;;;;97.07;17.67;;;-1.50;99.90;;;;;;5053171;28;20456;-50
2022/12/15 07:33:38;;;;;;;15.50;12.27;;;-1.70;99.90;;;;;;5052617;28;20463;-49
2022/12/15 07:36:07;;;;;;;17.73;11.93;;;-1.90;99.90;;;;;;5053270;28;20477;-52
2022/12/15 07:38:35;;;;;;;16.83;9.83;;;-2.00;99.90;;;;;;5053441;28;20494;-50
2022/12/15 07:41:02;;;;;;;17.87;11.93;;;-2.10;99.90;;;;;;5053361;28;20441;-52
2022/12/15 07:43:30;;;;;;;15.67;12.23;;;-1.90;99.90;;;;;;5052801;28;20568;-49
2022/12/15 07:45:57;;;;;;;28.30;14.13;;;-2.00;99.90;;;;;;5052730;28;20465;-49
2022/12/15 07:48:23;;;;;;;20.77;11.97;;;-2.10;99.90;;;;;;5053293;28;20544;-50
2022/12/15 07:50:56;;;;;;;20.33;11.23;;;-2.00;99.90;;;;;;5052973;28;20442;-51
2022/12/15 07:53:23;;;;;;;24.13;13.47;;;-1.80;99.90;;;;;;5052932;28;20446;-49
2022/12/15 07:55:54;;;;;;;32.97;9.43;;;-1.70;99.90;;;;;;5052583;28;20497;-49
2022/12/15 07:58:21;;;;;;;18.37;9.93;;;-1.90;99.90;;;;;;5052904;28;20937;-49
2022/12/15 08:00:48;;;;;;;26.83;10.07;;;-1.90;99.90;;;;;;5052626;28;20449;-48
2022/12/15 08:03:15;;;;;;;34.07;10.93;;;-1.90;99.90;;;;;;5052525;28;20441;-50
2022/12/15 08:05:42;;;;;;;34.33;10.63;;;-1.90;99.90;;;;;;5052507;28;20990;-48
2022/12/15 08:08:11;;;;;;;48.57;12.50;;;-1.90;99.90;;;;;;5052471;28;20450;-49
2022/12/15 08:10:39;;;;;;;34.63;10.37;;;-1.90;99.90;;;;;;5052701;28;20460;-50
2022/12/15 08:13:06;;;;;;;57.97;11.27;;;-1.90;99.90;;;;;;5052656;28;20531;-48
2022/12/15 08:15:36;;;;;;;40.57;11.47;;;-2.00;99.90;;;;;;5052422;28;20544;-49
2022/12/15 08:18:03;;;;;;;27.83;10.90;;;-2.20;99.90;;;;;;5053126;28;20437;-49
2022/12/15 08:20:30;;;;;;;17.83;9.60;;;-2.10;99.90;;;;;;5052405;28;20954;-49
2022/12/15 08:22:57;;;;;;;45.50;17.20;;;-1.90;99.90;;;;;;5051988;28;20452;-49
2022/12/15 08:25:27;;;;;;;61.00;19.80;;;-1.80;99.90;;;;;;5052281;28;20488;-49
2022/12/15 08:27:54;;;;;;;107.97;20.33;;;-1.80;99.90;;;;;;5052421;28;20449;-48
2022/12/15 08:30:21;;;;;;;109.00;18.37;;;-2.10;99.90;;;;;;5052114;28;20592;-49
2022/12/15 08:32:50;;;;;;;45.80;17.10;;;-2.30;99.90;;;;;;5052055;28;20492;-49
2022/12/15 08:35:17;;;;;;;66.10;16.83;;;-2.20;99.90;;;;;;5053365;28;20472;-49
2022/12/15 08:37:44;;;;;;;22.80;12.47;;;-2.30;99.90;;;;;;5052063;28;20441;-49
2022/12/15 08:40:12;;;;;;;39.53;13.10;;;-2.10;99.90;;;;;;5052230;28;20815;-49
2022/12/15 08:42:40;;;;;;;12.43;7.80;;;-1.90;99.90;;;;;;5052246;28;20450;-48
2022/12/15 08:45:08;;;;;;;19.53;11.37;;;-1.90;99.90;;;;;;5051585;28;21107;-50
2022/12/15 08:47:34;;;;;;;29.23;15.40;;;-1.80;99.90;;;;;;5051873;28;20520;-50
2022/12/15 08:50:02;;;;;;;21.67;11.30;;;-1.70;99.90;;;;;;5051937;28;20446;-49
2022/12/15 08:52:28;;;;;;;27.93;13.77;;;-0.90;99.90;;;;;;5052276;28;20547;-50
2022/12/15 08:54:55;;;;;;;96.63;18.60;;;-1.30;99.90;;;;;;5051175;28;20995;-50
2022/12/15 08:57:22;;;;;;;68.47;18.93;;;-1.70;99.90;;;;;;5051697;28;20539;-50
2022/12/15 08:59:50;;;;;;;36.97;13.93;;;-1.90;99.90;;;;;;5051675;28;20480;-48
2022/12/15 09:02:17;;;;;;;21.83;14.77;;;-1.80;99.90;;;;;;5051557;28;20461;-49
2022/12/15 09:04:44;;;;;;;38.13;16.70;;;-1.80;99.90;;;;;;5051429;28;20571;-49
2022/12/15 09:07:12;;;;;;;33.87;16.50;;;-2.00;99.90;;;;;;5051361;28;20487;-52
2022/12/15 09:09:39;;;;;;;22.70;15.63;;;-2.00;99.90;;;;;;5051431;28;20450;-48
2022/12/15 09:12:06;;;;;;;20.47;13.93;;;-1.60;99.90;;;;;;5051554;28;20445;-49
2022/12/15 09:14:33;;;;;;;22.27;14.93;;;-1.50;99.90;;;;;;5050853;28;20533;-49
2022/12/15 09:17:02;;;;;;;26.53;16.57;;;-1.40;99.90;;;;;;5051408;28;20438;-48
2022/12/15 09:19:29;;;;;;;19.83;12.23;;;-1.30;99.90;;;;;;5051498;28;20540;-48
2022/12/15 09:21:56;;;;;;;18.07;12.73;;;-1.20;99.90;;;;;;5051307;28;20528;-48
2022/12/15 09:24:23;;;;;;;17.90;12.70;;;-1.10;99.90;;;;;;5050229;28;20473;-49
2022/12/15 09:26:50;;;;;;;30.53;15.00;;;-1.10;99.90;;;;;;5049747;28;20638;-50
2022/12/15 09:29:17;;;;;;;22.63;15.30;;;-1.30;99.90;;;;;;5050843;28;20441;-49
2022/12/15 09:31:45;;;;;;;34.87;15.47;;;-1.30;99.90;;;;;;5051103;28;20479;-52
2022/12/15 09:34:15;;;;;;;49.03;14.40;;;-1.10;99.90;;;;;;5050856;28;20541;-49
2022/12/15 09:36:42;;;;;;;23.13;12.60;;;-1.30;99.90;;;;;;5050304;28;20467;-48
2022/12/15 09:39:10;;;;;;;35.87;12.17;;;-1.50;99.90;;;;;;5050973;28;21012;-50
2022/12/15 09:41:39;;;;;;;16.40;10.80;;;-1.30;99.90;;;;;;5051088;28;20454;-50
2022/12/15 09:44:11;;;;;;;17.13;11.10;;;-1.20;99.90;;;;;;5050806;28;20560;-50
2022/12/15 09:47:10;;;;;;;14.07;12.57;;;-1.00;99.90;;;;;;5050970;28;21041;-50
2022/12/15 09:49:53;;;;;;;19.37;11.67;;;-0.90;99.90;;;;;;5051696;28;20444;-49
2022/12/15 09:52:24;;;;;;;29.67;13.00;;;-1.00;99.90;;;;;;5051175;28;20446;-51
2022/12/15 09:54:51;;;;;;;30.93;17.70;;;-1.10;99.90;;;;;;5050496;28;20572;-49
2022/12/15 09:57:25;;;;;;;25.23;11.70;;;-1.20;99.90;;;;;;5050997;28;21057;-49
2022/12/15 10:00:11;;;;;;;51.23;31.97;;;-1.00;99.90;;;;;;5050869;28;20525;-50
2022/12/15 10:03:04;;;;;;;31.80;14.93;;;-0.90;99.90;;;;;;5050910;28;20477;-50
2022/12/15 10:05:42;;;;;;;19.33;13.10;;;-1.00;99.90;;;;;;5043025;28;20481;-49
2022/12/15 10:08:09;;;;;;;16.80;12.43;;;-0.90;99.90;;;;;;5050811;28;20450;-52
2022/12/15 10:10:42;;;;;;;27.77;13.77;;;-0.90;99.90;;;;;;5050884;28;20502;-49
2022/12/15 10:13:17;;;;;;;16.10;11.83;;;-0.70;99.90;;;;;;5050854;28;20524;-50
2022/12/15 10:15:50;;;;;;;13.43;10.97;;;-0.70;99.90;;;;;;5050527;28;20479;-48
2022/12/15 10:18:22;;;;;;;35.73;12.30;;;-0.70;99.90;;;;;;5050822;28;20989;-49
2022/12/15 10:20:53;;;;;;;28.53;12.67;;;-0.60;99.90;;;;;;5050719;28;20525;-49
2022/12/15 10:23:20;;;;;;;19.50;12.47;;;-0.80;99.90;;;;;;5050864;28;20445;-49
2022/12/15 10:25:49;;;;;;;16.00;13.27;;;-0.70;99.90;;;;;;5050865;28;20570;-49
2022/12/15 10:28:36;;;;;;;20.33;12.57;;;-0.70;99.90;;;;;;5050633;28;20558;-51
2022/12/15 10:31:18;;;;;;;18.13;13.50;;;-0.60;99.90;;;;;;5051024;28;20533;-51
2022/12/15 10:33:53;;;;;;;38.90;14.90;;;-0.50;99.90;;;;;;5050567;28;20441;-49
2022/12/15 10:36:21;;;;;;;30.80;14.43;;;-0.60;99.90;;;;;;5050438;28;20469;-49
2022/12/15 10:38:49;;;;;;;19.30;13.50;;;-0.70;99.90;;;;;;5050960;28;20935;-49
2022/12/15 10:41:18;;;;;;;16.33;12.10;;;-0.70;99.90;;;;;;5050761;28;20533;-49
2022/12/15 10:43:47;;;;;;;17.60;12.23;;;-0.70;99.90;;;;;;5050231;28;20449;-50
2022/12/15 10:46:17;;;;;;;17.20;13.23;;;-0.50;99.90;;;;;;5050601;28;20577;-49
2022/12/15 10:48:46;;;;;;;18.80;12.00;;;-0.50;99.90;;;;;;5054355;28;20532;-49
2022/12/15 10:51:26;;;;;;;25.27;13.53;;;-0.40;99.90;;;;;;5054051;28;20934;-49
2022/12/15 10:54:03;;;;;;;21.37;12.50;;;-0.30;99.90;;;;;;5053495;28;20473;-49
2022/12/15 10:56:32;;;;;;;20.43;12.53;;;-0.30;99.90;;;;;;5052997;28;20471;-52
2022/12/15 10:59:01;;;;;;;17.07;10.43;;;-0.40;99.90;;;;;;5050314;28;20540;-49
2022/12/15 11:01:31;;;;;;;31.77;13.63;;;-0.40;99.90;;;;;;5052975;28;20495;-52
2022/12/15 11:03:58;;;;;;;24.57;12.50;;;-0.50;99.90;;;;;;5052778;28;20524;-51
2022/12/15 11:06:28;;;;;;;14.00;11.60;;;-0.60;99.90;;;;;;5049121;28;20540;-49
2022/12/15 11:08:57;;;;;;;15.27;12.07;;;-0.40;99.90;;;;;;5053668;28;20525;-50
2022/12/15 11:14:16;;;;;;;13.83;11.70;;;-0.20;99.90;;;;;;5052118;28;20417;-50
2022/12/15 11:16:51;;;;;;;16.37;11.60;;;-0.10;99.90;;;;;;5052217;28;20997;-50
2022/12/15 11:19:30;;;;;;;13.33;10.97;;;-0.10;99.90;;;;;;5052045;28;20531;-50
2022/12/15 11:22:04;;;;;;;18.27;11.97;;;-0.10;99.90;;;;;;5052123;28;20528;-49
2022/12/15 11:24:38;;;;;;;15.30;11.87;;;-0.20;99.90;;;;;;5051035;28;20563;-49
2022/12/15 11:27:14;;;;;;;15.60;10.63;;;-0.30;99.90;;;;;;5052132;28;20446;-49
2022/12/15 11:29:56;;;;;;;13.93;10.83;;;-0.40;99.90;;;;;;5052248;28;20529;-50
2022/12/15 11:32:27;;;;;;;21.43;14.13;;;-0.30;99.90;;;;;;5053390;28;20538;-49
2022/12/15 11:34:55;;;;;;;24.37;14.67;;;-0.30;99.90;;;;;;5052044;28;20910;-52
2022/12/15 11:37:37;;;;;;;15.00;11.73;;;-0.20;99.90;;;;;;5051881;28;20894;-48
2022/12/15 11:40:18;;;;;;;13.00;10.63;;;-0.10;99.90;;;;;;5052161;28;20972;-52
2022/12/15 11:43:09;;;;;;;15.10;12.00;;;0.00;99.90;;;;;;5053226;28;20529;-48
2022/12/15 11:45:45;;;;;;;16.80;12.47;;;-0.10;99.90;;;;;;5049993;28;20481;-49
2022/12/15 11:48:16;;;;;;;16.40;11.53;;;0.00;99.90;;;;;;5052515;28;20537;-49
2022/12/15 11:50:53;;;;;;;16.87;14.20;;;0.00;99.90;;;;;;5051145;28;20499;-49
2022/12/15 11:53:53;;;;;;;19.33;11.70;;;0.10;99.90;;;;;;5050851;28;20437;-50
2022/12/15 11:56:28;;;;;;;15.30;10.60;;;0.10;99.90;;;;;;5051576;28;20461;-52
2022/12/15 11:59:08;;;;;;;16.33;13.23;;;0.10;99.90;;;;;;5051457;28;20545;-49
2022/12/15 12:01:56;;;;;;;15.73;11.53;;;0.20;99.90;;;;;;5051442;28;20441;-49
2022/12/15 12:04:26;;;;;;;13.50;11.50;;;0.20;99.90;;;;;;5051924;28;20449;-45
2022/12/15 12:07:07;;;;;;;20.90;15.53;;;0.10;99.90;;;;;;5052877;28;20495;-48
2022/12/15 12:09:36;;;;;;;12.27;11.07;;;0.10;99.90;;;;;;5053024;28;20563;-49
2022/12/15 12:12:21;;;;;;;22.07;17.80;;;0.00;99.90;;;;;;5052571;28;20472;-49
2022/12/15 12:14:59;;;;;;;20.67;14.00;;;0.10;99.90;;;;;;5052392;28;20496;-49
2022/12/15 12:17:37;;;;;;;31.33;14.17;;;0.00;99.90;;;;;;5052569;28;20445;-49
2022/12/15 12:20:13;;;;;;;18.40;12.97;;;-0.20;99.90;;;;;;5052578;28;20969;-49
2022/12/15 12:22:44;;;;;;;17.37;12.00;;;-0.30;99.90;;;;;;5052727;28;20446;-49
2022/12/15 12:25:18;;;;;;;19.20;12.07;;;-0.20;99.90;;;;;;5052289;28;20568;-51
2022/12/15 12:27:51;;;;;;;17.87;13.57;;;-0.10;99.90;;;;;;5052238;28;20438;-49
2022/12/15 12:30:21;;;;;;;17.37;13.40;;;0.00;99.90;;;;;;5052417;28;20495;-49
2022/12/15 12:32:55;;;;;;;21.03;12.27;;;0.10;99.90;;;;;;5052071;28;21014;-51
2022/12/15 12:35:27;;;;;;;18.63;12.83;;;0.10;99.90;;;;;;5051291;28;21205;-49
2022/12/15 12:38:00;;;;;;;23.00;13.87;;;-0.10;99.90;;;;;;5052619;28;20875;-49
2022/12/15 12:40:33;;;;;;;18.17;12.13;;;-0.40;99.90;;;;;;5052065;28;20556;-49
2022/12/15 12:43:00;;;;;;;15.27;12.77;;;-0.40;99.90;;;;;;5052088;28;20442;-49
2022/12/15 12:45:34;;;;;;;13.73;11.10;;;-0.30;99.90;;;;;;5051916;28;20481;-49
2022/12/15 12:48:08;;;;;;;17.30;11.73;;;-0.30;99.90;;;;;;5051974;28;20616;-49
2022/12/15 12:50:35;;;;;;;17.37;12.87;;;-0.30;99.90;;;;;;5052140;28;20480;-49
2022/12/15 12:53:04;;;;;;;25.10;15.60;;;-0.40;99.90;;;;;;5051575;28;20865;-49
2022/12/15 12:55:39;;;;;;;18.60;14.23;;;-0.40;99.90;;;;;;5051402;28;20497;-49
2022/12/15 12:58:31;;;;;;;18.70;14.37;;;-0.40;99.90;;;;;;5051888;28;20422;-49
2022/12/15 13:01:18;;;;;;;15.03;13.43;;;-0.40;99.90;;;;;;5049640;28;20441;-48
2022/12/15 13:03:47;;;;;;;17.57;13.00;;;-0.30;99.90;;;;;;5050594;28;20437;-49
2022/12/15 13:06:21;;;;;;;16.53;14.10;;;-0.30;99.90;;;;;;5051339;28;20485;-49
2022/12/15 13:08:54;;;;;;;19.47;15.00;;;-0.20;99.90;;;;;;5051313;28;20874;-49
2022/12/15 13:11:57;;;;;;;21.27;15.63;;;-0.10;99.90;;;;;;5050249;28;20795;-49
2022/12/15 13:14:51;;;;;;;22.27;16.77;;;-0.30;99.90;;;;;;5051163;28;20855;-49
2022/12/15 13:17:30;;;;;;;16.17;13.10;;;-0.10;99.90;;;;;;5050280;28;20438;-49
2022/12/15 13:20:28;;;;;;;15.93;12.90;;;-0.10;99.90;;;;;;5051434;28;20441;-47
2022/12/15 13:22:56;;;;;;;20.57;14.90;;;-0.10;99.90;;;;;;5051319;28;20461;-49
2022/12/15 13:25:43;;;;;;;16.23;14.00;;;-0.10;99.90;;;;;;5051186;28;20481;-48
2022/12/15 13:28:26;;;;;;;14.73;11.43;;;-0.20;99.90;;;;;;5051395;28;20449;-49
2022/12/15 13:31:11;;;;;;;14.20;11.80;;;-0.20;99.90;;;;;;5051253;28;20829;-51
2022/12/15 13:33:51;;;;;;;12.10;10.90;;;-0.10;99.90;;;;;;5036618;28;20544;-48
2022/12/15 13:36:46;;;;;;;12.03;9.90;;;-0.20;99.90;;;;;;5051030;28;20508;-49
2022/12/15 13:39:53;;;;;;;15.67;12.67;;;-0.30;99.90;;;;;;5051141;28;20552;-49
2022/12/15 13:42:34;;;;;;;16.60;11.00;;;-0.30;99.90;;;;;;4969575;28;20532;-51
2022/12/15 13:45:35;;;;;;;13.57;10.80;;;-0.20;99.90;;;;;;5045265;28;20505;-48
2022/12/15 13:48:12;;;;;;;16.87;11.90;;;-0.30;99.90;;;;;;5051204;28;20497;-49
2022/12/15 13:50:47;;;;;;;14.57;11.97;;;-0.30;99.90;;;;;;5050992;28;20583;-51
2022/12/15 13:53:20;;;;;;;15.27;10.80;;;-0.40;99.90;;;;;;5050832;28;20881;-49
2022/12/15 13:55:55;;;;;;;15.50;13.00;;;-0.30;99.90;;;;;;5050591;28;20489;-49
2022/12/15 13:58:24;;;;;;;18.43;12.87;;;-0.20;99.90;;;;;;5051089;28;20476;-49
2022/12/15 14:00:53;;;;;;;15.00;13.50;;;-0.30;99.90;;;;;;5050702;28;20448;-51
2022/12/15 14:03:21;;;;;;;16.20;12.80;;;-0.30;99.90;;;;;;5050920;28;20488;-49
2022/12/15 14:05:51;;;;;;;15.20;11.53;;;-0.30;99.90;;;;;;5050787;28;20994;-50
2022/12/15 14:08:19;;;;;;;18.50;14.17;;;-0.50;99.90;;;;;;5051030;28;20438;-49
2022/12/15 14:10:50;;;;;;;21.37;13.37;;;-0.50;99.90;;;;;;5050972;28;20533;-52
2022/12/15 14:13:21;;;;;;;19.43;16.73;;;-0.40;99.90;;;;;;5050731;28;20927;-49
2022/12/15 14:15:52;;;;;;;18.50;15.53;;;-0.30;99.90;;;;;;5050713;28;20468;-49
2022/12/15 14:18:29;;;;;;;20.57;17.87;;;-0.30;99.90;;;;;;5050993;28;20450;-49
2022/12/15 14:20:58;;;;;;;29.17;18.97;;;-0.30;99.90;;;;;;5050985;28;20532;-49
2022/12/15 14:23:27;;;;;;;23.97;17.67;;;-0.40;99.90;;;;;;5053970;28;20488;-50
2022/12/15 14:25:56;;;;;;;24.03;17.20;;;-0.40;99.90;;;;;;5054688;28;20484;-50
2022/12/15 14:28:29;;;;;;;26.13;17.00;;;-0.30;99.90;;;;;;5054415;28;20552;-50
2022/12/15 14:30:59;;;;;;;25.30;19.30;;;-0.20;99.90;;;;;;5054365;28;20819;-51
2022/12/15 14:33:27;;;;;;;25.10;18.43;;;-0.20;99.90;;;;;;5054177;28;20449;-50
2022/12/15 14:35:56;;;;;;;23.60;18.47;;;-0.40;99.90;;;;;;5055822;28;20913;-52
2022/12/15 14:38:31;;;;;;;25.80;17.77;;;-0.30;99.90;;;;;;5054338;28;20533;-49
2022/12/15 14:41:03;;;;;;;24.00;16.97;;;-0.30;99.90;;;;;;5054533;28;20445;-50
2022/12/15 14:43:33;;;;;;;23.63;16.37;;;-0.20;99.90;;;;;;5054082;28;20444;-49
2022/12/15 14:46:07;;;;;;;22.20;17.67;;;-0.10;99.90;;;;;;5054257;28;20484;-50
2022/12/15 14:48:38;;;;;;;22.33;15.20;;;-0.30;99.90;;;;;;5054694;28;20477;-50
2022/12/15 14:51:06;;;;;;;20.63;16.40;;;-0.40;99.90;;;;;;5054227;28;20442;-50
2022/12/15 14:53:38;;;;;;;22.63;16.20;;;-0.40;99.90;;;;;;5053814;28;20465;-52
2022/12/15 14:56:23;;;;;;;24.03;18.87;;;-0.60;99.90;;;;;;5053957;28;20855;-50
2022/12/15 14:58:58;;;;;;;22.00;18.30;;;-0.40;99.90;;;;;;5054127;28;20441;-50
2022/12/15 15:01:26;;;;;;;25.00;16.97;;;-0.30;99.90;;;;;;5053674;28;20531;-50
2022/12/15 15:03:58;;;;;;;22.00;16.70;;;-0.20;99.90;;;;;;5053873;28;20553;-50
2022/12/15 15:06:31;;;;;;;18.80;16.07;;;-0.20;99.90;;;;;;5053832;28;20576;-50
2022/12/15 15:09:21;;;;;;;18.63;14.90;;;-0.30;99.90;;;;;;5053861;28;20437;-50
2022/12/15 15:11:51;;;;;;;19.83;15.40;;;-0.20;99.90;;;;;;5053996;28;20537;-50
2022/12/15 15:14:23;;;;;;;20.63;17.30;;;-0.10;99.90;;;;;;5053712;28;20442;-50
2022/12/15 15:17:04;;;;;;;21.10;17.77;;;-0.10;99.90;;;;;;5053598;28;20986;-50
2022/12/15 15:19:32;;;;;;;23.43;17.20;;;-0.10;99.90;;;;;;5053827;28;20536;-50
2022/12/15 15:22:00;;;;;;;26.10;18.60;;;-0.20;99.90;;;;;;5053339;28;20532;-51
2022/12/15 15:24:36;;;;;;;24.30;18.63;;;-0.20;99.90;;;;;;5053265;28;21065;-50
2022/12/15 15:27:27;;;;;;;24.90;19.20;;;-0.20;99.90;;;;;;5053845;28;20485;-50